createdAt,value
2019-05-19T00:01:45.998Z,13.70
2019-05-19T00:04:50.766Z,14.10
2019-05-19T00:07:55.633Z,15.23
2019-05-19T00:11:00.533Z,12.87
2019-05-19T00:14:05.061Z,9.63
2019-05-19T00:17:09.524Z,12.80
2019-05-19T00:20:15.316Z,14.30
2019-05-19T00:23:19.842Z,11.00
2019-05-19T00:26:24.493Z,18.53
2019-05-19T00:29:29.003Z,10.50
2019-05-19T00:32:33.516Z,11.87
2019-05-19T00:35:38.092Z,11.57
2019-05-19T00:38:43.083Z,10.10
2019-05-19T00:41:47.632Z,11.17
2019-05-19T00:44:52.019Z,15.57
2019-05-19T00:47:56.687Z,12.77
2019-05-19T00:51:01.925Z,9.10
2019-05-19T00:54:06.454Z,12.87
2019-05-19T00:57:12.143Z,11.30
2019-05-19T01:00:17.296Z,11.03
2019-05-19T01:03:21.585Z,11.03
2019-05-19T01:06:27.395Z,11.30
2019-05-19T01:09:31.771Z,12.40
2019-05-19T01:12:36.307Z,10.37
2019-05-19T01:15:40.950Z,14.77
2019-05-19T01:18:46.107Z,9.13
2019-05-19T01:21:51.304Z,11.87
2019-05-19T01:24:56.275Z,13.83
2019-05-19T01:28:00.910Z,11.50
2019-05-19T01:31:05.284Z,15.17
2019-05-19T01:34:09.797Z,14.67
2019-05-19T01:37:15.003Z,13.37
2019-05-19T01:40:19.760Z,9.97
2019-05-19T01:43:24.921Z,10.30
2019-05-19T01:46:29.216Z,10.23
2019-05-19T01:49:33.495Z,9.93
2019-05-19T01:52:37.865Z,11.80
2019-05-19T01:55:42.166Z,11.93
2019-05-19T01:58:46.476Z,10.93
2019-05-19T02:01:50.853Z,10.30
2019-05-19T02:04:55.336Z,9.33
2019-05-19T02:07:59.659Z,9.97
2019-05-19T02:11:03.957Z,7.53
2019-05-19T02:14:08.232Z,10.10
2019-05-19T02:17:12.490Z,9.40
2019-05-19T02:20:31.653Z,10.50
2019-05-19T02:23:23.323Z,9.00
2019-05-19T02:26:27.674Z,11.10
2019-05-19T02:29:32.096Z,10.50
2019-05-19T02:32:36.450Z,9.80
2019-05-19T02:35:40.762Z,11.00
2019-05-19T02:38:45.149Z,9.63
2019-05-19T02:41:50.121Z,8.17
2019-05-19T02:44:56.386Z,10.93
2019-05-19T02:48:02.976Z,11.37
2019-05-19T02:51:08.420Z,9.53
2019-05-19T02:54:14.287Z,10.37
2019-05-19T02:57:18.920Z,8.93
2019-05-19T03:00:35.373Z,12.70
2019-05-19T03:03:42.345Z,13.97
2019-05-19T03:06:46.658Z,11.73
2019-05-19T03:09:51.566Z,13.30
2019-05-19T03:12:56.071Z,10.97
2019-05-19T03:16:00.428Z,13.03
2019-05-19T03:19:04.794Z,12.43
2019-05-19T03:22:09.157Z,9.83
2019-05-19T03:25:13.514Z,9.73
2019-05-19T03:28:19.860Z,11.27
2019-05-19T03:31:31.193Z,9.73
2019-05-19T03:34:35.574Z,9.63
2019-05-19T03:37:39.858Z,8.57
2019-05-19T03:40:44.209Z,10.20
2019-05-19T03:43:49.526Z,7.33
2019-05-19T03:46:53.808Z,8.87
2019-05-19T03:49:58.152Z,8.90
2019-05-19T03:53:03.075Z,8.70
2019-05-19T03:56:07.453Z,10.47
2019-05-19T03:59:11.745Z,13.23
2019-05-19T04:02:16.125Z,9.30
2019-05-19T04:05:20.395Z,10.83
2019-05-19T04:08:24.816Z,9.10
2019-05-19T04:11:29.123Z,10.87
2019-05-19T04:14:33.606Z,8.37
2019-05-19T04:17:37.938Z,8.37
2019-05-19T04:20:42.483Z,11.13
2019-05-19T04:23:46.837Z,11.30
2019-05-19T04:26:51.245Z,10.00
2019-05-19T04:29:55.534Z,12.83
2019-05-19T04:32:59.928Z,12.10
2019-05-19T04:36:04.221Z,15.70
2019-05-19T04:39:08.927Z,11.63
2019-05-19T04:42:13.286Z,15.73
2019-05-19T04:45:17.702Z,10.80
2019-05-19T04:48:22.002Z,12.90
2019-05-19T04:51:26.363Z,11.30
2019-05-19T04:54:30.733Z,13.23
2019-05-19T04:57:35.671Z,14.10
2019-05-19T05:00:40.027Z,16.20
2019-05-19T05:03:44.555Z,12.37
2019-05-19T05:06:48.906Z,13.83
2019-05-19T05:09:53.302Z,15.23
2019-05-19T05:12:57.763Z,19.67
2019-05-19T05:16:04.054Z,16.63
2019-05-19T05:19:08.180Z,33.53
2019-05-19T05:22:21.806Z,29.03
2019-05-19T05:25:19.583Z,19.70
2019-05-19T05:28:23.953Z,24.93
2019-05-19T05:31:28.258Z,40.53
2019-05-19T05:34:32.555Z,37.57
2019-05-19T05:37:37.012Z,38.80
2019-05-19T05:40:41.405Z,40.33
2019-05-19T05:43:45.774Z,44.60
2019-05-19T05:46:50.407Z,42.93
2019-05-19T05:49:54.765Z,40.43
2019-05-19T05:52:59.172Z,45.53
2019-05-19T05:56:03.553Z,50.20
2019-05-19T05:59:07.885Z,40.37
2019-05-19T06:02:12.252Z,47.97
2019-05-19T06:05:16.582Z,42.00
2019-05-19T06:08:20.950Z,40.27
2019-05-19T06:11:25.347Z,44.23
2019-05-19T06:14:29.679Z,42.70
2019-05-19T06:17:34.076Z,42.63
2019-05-19T06:20:38.469Z,40.73
2019-05-19T06:23:42.934Z,46.70
2019-05-19T06:26:47.339Z,44.80
2019-05-19T06:29:51.747Z,40.17
2019-05-19T06:32:57.550Z,38.37
2019-05-19T06:36:02.144Z,42.17
2019-05-19T06:39:07.619Z,38.63
2019-05-19T06:42:12.048Z,42.10
2019-05-19T06:45:18.775Z,43.43
2019-05-19T06:48:23.221Z,40.53
2019-05-19T06:51:27.612Z,36.90
2019-05-19T06:54:32.059Z,37.87
2019-05-19T06:57:36.497Z,36.73
2019-05-19T07:00:42.335Z,40.93
2019-05-19T07:03:46.647Z,37.87
2019-05-19T07:07:10.239Z,38.30
2019-05-19T07:10:14.841Z,42.57
2019-05-19T07:13:19.186Z,36.93
2019-05-19T07:16:23.508Z,41.90
2019-05-19T07:19:29.070Z,40.27
2019-05-19T07:22:37.498Z,41.30
2019-05-19T07:25:42.259Z,45.40
2019-05-19T07:28:47.292Z,42.63
2019-05-19T07:31:52.419Z,42.77
2019-05-19T07:34:57.300Z,44.23
2019-05-19T07:38:02.470Z,38.87
2019-05-19T07:41:08.151Z,42.37
2019-05-19T07:44:13.358Z,49.00
2019-05-19T07:47:20.726Z,44.43
2019-05-19T07:50:25.311Z,41.00
2019-05-19T07:53:42.261Z,39.97
2019-05-19T07:56:37.636Z,40.33
2019-05-19T07:59:43.229Z,41.97
2019-05-19T08:02:48.282Z,39.27
2019-05-19T08:05:52.980Z,39.27
2019-05-19T08:08:58.660Z,35.37
2019-05-19T08:12:06.776Z,33.77
2019-05-19T08:15:12.416Z,36.67
2019-05-19T08:18:17.879Z,38.43
2019-05-19T08:21:22.539Z,44.13
2019-05-19T08:24:26.816Z,37.07
2019-05-19T08:27:31.325Z,40.70
2019-05-19T08:30:35.914Z,38.57
2019-05-19T08:33:41.484Z,35.63
2019-05-19T08:36:46.012Z,33.47
2019-05-19T08:39:50.583Z,34.00
2019-05-19T08:42:54.951Z,28.30
2019-05-19T08:45:59.448Z,28.87
2019-05-19T08:49:03.881Z,26.73
2019-05-19T08:52:08.295Z,25.33
2019-05-19T08:55:12.931Z,22.27
2019-05-19T08:58:17.362Z,22.00
2019-05-19T09:01:25.013Z,30.93
2019-05-19T09:04:29.734Z,26.70
2019-05-19T09:07:34.286Z,23.77
2019-05-19T09:10:38.821Z,19.40
2019-05-19T09:13:43.307Z,16.10
2019-05-19T09:16:48.829Z,14.57
2019-05-19T09:19:55.691Z,15.77
2019-05-19T09:23:00.544Z,14.60
2019-05-19T09:26:05.446Z,15.73
2019-05-19T09:29:09.846Z,13.73
2019-05-19T09:32:14.210Z,17.70
2019-05-19T09:35:19.783Z,11.63
2019-05-19T09:38:24.185Z,11.10
2019-05-19T09:41:28.596Z,11.83
2019-05-19T09:44:32.958Z,12.20
2019-05-19T09:47:37.879Z,14.57
2019-05-19T09:50:42.327Z,12.27
2019-05-19T09:53:47.190Z,13.47
2019-05-19T09:56:51.702Z,12.83
2019-05-19T09:59:56.219Z,11.57
2019-05-19T10:03:00.607Z,10.63
2019-05-19T10:06:05.068Z,11.93
2019-05-19T10:09:13.610Z,12.77
2019-05-19T10:12:19.424Z,14.20
2019-05-19T10:15:23.939Z,11.73
2019-05-19T10:18:28.371Z,10.50
2019-05-19T10:21:32.811Z,11.13
2019-05-19T10:24:37.376Z,11.57
2019-05-19T10:27:41.779Z,8.97
2019-05-19T10:30:46.248Z,14.53
2019-05-19T10:33:50.685Z,8.93
2019-05-19T10:36:55.174Z,9.50
2019-05-19T10:39:59.563Z,9.13
2019-05-19T10:43:04.146Z,8.57
2019-05-19T10:46:08.491Z,10.53
2019-05-19T10:49:12.932Z,7.90
2019-05-19T10:52:17.359Z,8.67
2019-05-19T10:55:34.070Z,7.70
2019-05-19T10:58:27.944Z,7.53
2019-05-19T11:01:32.369Z,7.07
2019-05-19T11:04:36.883Z,8.10
2019-05-19T11:07:41.463Z,7.83
2019-05-19T11:10:48.033Z,7.70
2019-05-19T11:13:52.642Z,8.27
2019-05-19T11:16:59.976Z,7.10
2019-05-19T11:20:04.910Z,6.80
2019-05-19T11:23:09.359Z,10.23
2019-05-19T11:26:13.867Z,7.83
2019-05-19T11:29:18.451Z,8.90
2019-05-19T11:32:23.238Z,6.30
2019-05-19T11:35:27.674Z,7.97
2019-05-19T11:38:32.692Z,5.03
2019-05-19T11:41:37.058Z,6.67
2019-05-19T11:44:41.640Z,7.47
2019-05-19T11:47:46.080Z,5.60
2019-05-19T11:50:50.558Z,6.17
2019-05-19T11:53:54.989Z,5.57
2019-05-19T11:56:59.489Z,6.67
2019-05-19T12:00:03.933Z,6.57
2019-05-19T12:03:08.657Z,5.83
2019-05-19T12:06:13.440Z,6.23
2019-05-19T12:09:17.905Z,8.20
2019-05-19T12:12:22.583Z,7.00
2019-05-19T12:15:27.558Z,5.87
2019-05-19T12:18:32.213Z,6.47
2019-05-19T12:21:36.730Z,6.57
2019-05-19T12:24:41.326Z,13.10
2019-05-19T12:27:46.385Z,9.57
2019-05-19T12:30:51.542Z,12.90
2019-05-19T12:33:58.688Z,7.53
2019-05-19T12:37:03.420Z,10.63
2019-05-19T12:40:08.178Z,7.30
2019-05-19T12:43:13.704Z,11.33
2019-05-19T12:46:18.788Z,12.10
2019-05-19T12:49:23.853Z,8.10
2019-05-19T12:52:28.896Z,9.33
2019-05-19T12:55:33.991Z,7.63
2019-05-19T12:58:38.825Z,6.00
2019-05-19T13:01:43.565Z,3.53
2019-05-19T13:05:03.607Z,6.03
2019-05-19T13:07:54.486Z,5.87
2019-05-19T13:10:59.281Z,6.80
2019-05-19T13:14:05.982Z,4.63
2019-05-19T13:17:10.491Z,6.13
2019-05-19T13:20:14.997Z,7.33
2019-05-19T13:23:19.423Z,10.33
2019-05-19T13:26:24.456Z,7.13
2019-05-19T13:29:29.688Z,7.00
2019-05-19T13:32:34.147Z,5.33
2019-05-19T13:35:38.898Z,5.87
2019-05-19T13:38:43.396Z,4.07
2019-05-19T13:41:48.058Z,5.00
2019-05-19T13:44:53.585Z,5.63
2019-05-19T13:48:03.082Z,3.43
2019-05-19T13:51:07.725Z,6.30
2019-05-19T13:54:12.346Z,3.20
2019-05-19T13:57:16.862Z,5.50
2019-05-19T14:00:22.923Z,4.00
2019-05-19T14:03:33.033Z,4.63
2019-05-19T14:06:37.688Z,5.17
2019-05-19T14:09:45.085Z,3.90
2019-05-19T14:12:49.739Z,5.20
2019-05-19T14:15:54.157Z,10.33
2019-05-19T14:18:59.032Z,4.90
2019-05-19T14:22:03.445Z,4.43
2019-05-19T14:25:08.152Z,4.03
2019-05-19T14:28:12.573Z,6.50
2019-05-19T14:31:17.028Z,4.30
2019-05-19T14:34:21.569Z,4.93
2019-05-19T14:37:26.049Z,3.77
2019-05-19T14:40:30.484Z,3.53
2019-05-19T14:43:35.075Z,4.37
2019-05-19T14:46:39.505Z,5.00
2019-05-19T14:49:45.623Z,3.97
2019-05-19T14:52:50.132Z,4.03
2019-05-19T14:55:54.759Z,3.67
2019-05-19T14:58:59.343Z,4.40
2019-05-19T15:02:03.742Z,5.77
2019-05-19T15:05:08.301Z,4.13
2019-05-19T15:08:13.142Z,5.57
2019-05-19T15:11:18.685Z,5.33
2019-05-19T15:14:23.423Z,4.13
2019-05-19T15:17:27.982Z,5.43
2019-05-19T15:20:32.437Z,7.13
2019-05-19T15:23:38.088Z,5.30
2019-05-19T15:26:42.658Z,6.40
2019-05-19T15:29:47.167Z,5.27
2019-05-19T15:32:51.875Z,4.87
2019-05-19T15:35:56.554Z,6.03
2019-05-19T15:39:01.346Z,4.30
2019-05-19T15:42:05.741Z,5.17
2019-05-19T15:45:11.294Z,4.83
2019-05-19T15:48:17.760Z,5.33
2019-05-19T15:51:29.184Z,6.57
2019-05-19T15:54:30.057Z,7.03
2019-05-19T15:57:34.492Z,8.47
2019-05-19T16:00:39.937Z,5.27
2019-05-19T16:03:44.431Z,7.53
2019-05-19T16:06:48.856Z,7.23
2019-05-19T16:09:53.315Z,4.07
2019-05-19T16:12:58.028Z,4.03
2019-05-19T16:16:05.871Z,6.30
2019-05-19T16:19:10.479Z,6.40
2019-05-19T16:22:14.965Z,4.57
2019-05-19T16:25:19.419Z,7.03
2019-05-19T16:28:30.659Z,5.53
2019-05-19T16:31:30.095Z,4.17
2019-05-19T16:34:35.822Z,6.13
2019-05-19T16:37:41.666Z,4.43
2019-05-19T16:40:46.207Z,5.13
2019-05-19T16:43:50.706Z,7.80
2019-05-19T16:46:55.621Z,14.23
2019-05-19T16:50:00.483Z,9.77
2019-05-19T16:53:05.304Z,8.10
2019-05-19T16:56:09.723Z,6.10
2019-05-19T16:59:14.775Z,5.97
2019-05-19T17:02:22.344Z,8.70
2019-05-19T17:05:27.101Z,4.77
2019-05-19T17:08:31.687Z,5.60
2019-05-19T17:11:39.511Z,5.20
2019-05-19T17:14:48.919Z,4.80
2019-05-19T17:17:53.005Z,6.93
2019-05-19T17:20:58.094Z,5.27
2019-05-19T17:24:06.364Z,4.43
2019-05-19T17:27:12.255Z,4.60
2019-05-19T17:30:17.697Z,7.30
2019-05-19T17:33:22.552Z,7.60
2019-05-19T17:36:27.569Z,5.70
2019-05-19T17:39:32.212Z,5.47
2019-05-19T17:42:39.131Z,5.87
2019-05-19T17:45:43.920Z,6.70
2019-05-19T17:48:48.842Z,5.73
2019-05-19T17:51:53.648Z,6.90
2019-05-19T17:55:01.433Z,8.70
2019-05-19T17:58:05.973Z,7.13
2019-05-19T18:01:10.633Z,7.30
2019-05-19T18:04:15.390Z,11.83
2019-05-19T18:07:21.488Z,6.90
2019-05-19T18:10:26.861Z,9.63
2019-05-19T18:13:31.579Z,11.97
2019-05-19T18:16:36.084Z,12.10
2019-05-19T18:19:44.167Z,8.60
2019-05-19T18:22:48.741Z,12.00
2019-05-19T18:25:53.377Z,7.43
2019-05-19T18:28:57.955Z,6.47
2019-05-19T18:32:02.531Z,5.83
2019-05-19T18:35:07.046Z,6.20
2019-05-19T18:38:11.542Z,10.40
2019-05-19T18:41:20.347Z,6.70
2019-05-19T18:44:25.509Z,5.93
2019-05-19T18:47:30.014Z,6.03
2019-05-19T18:50:34.731Z,7.37
2019-05-19T18:53:41.914Z,6.20
2019-05-19T18:56:46.409Z,8.10
2019-05-19T18:59:50.968Z,7.53
2019-05-19T19:02:55.840Z,7.30
2019-05-19T19:06:00.299Z,7.20
2019-05-19T19:09:06.982Z,14.10
2019-05-19T19:12:11.624Z,12.27
2019-05-19T19:15:16.486Z,90.43
2019-05-19T19:18:22.427Z,34.33
2019-05-19T19:21:27.698Z,32.77
2019-05-19T19:24:32.388Z,30.90
2019-05-19T19:27:39.805Z,30.73
2019-05-19T19:30:44.732Z,26.07
2019-05-19T19:33:50.477Z,27.20
2019-05-19T19:36:55.676Z,24.17
2019-05-19T19:40:01.022Z,23.30
2019-05-19T19:43:06.015Z,20.97
2019-05-19T19:46:10.973Z,19.47
2019-05-19T19:49:15.499Z,18.70
2019-05-19T19:52:28.143Z,17.50
2019-05-19T19:55:33.899Z,14.53
2019-05-19T19:58:39.312Z,14.20
2019-05-19T20:01:46.962Z,17.13
2019-05-19T20:04:52.222Z,11.60
2019-05-19T20:07:57.427Z,12.37
2019-05-19T20:11:02.679Z,12.27
2019-05-19T20:14:07.741Z,13.40
2019-05-19T20:17:12.972Z,17.37
2019-05-19T20:20:17.700Z,21.63
2019-05-19T20:23:23.523Z,21.10
2019-05-19T20:26:28.515Z,23.00
2019-05-19T20:29:33.424Z,27.43
2019-05-19T20:32:38.624Z,23.13
2019-05-19T20:35:44.157Z,24.10
2019-05-19T20:38:48.894Z,23.50
2019-05-19T20:41:53.329Z,24.00
2019-05-19T20:44:59.935Z,22.53
2019-05-19T20:48:04.844Z,22.93
2019-05-19T20:51:09.284Z,17.83
2019-05-19T20:54:14.154Z,18.23
2019-05-19T20:57:18.616Z,18.03
2019-05-19T21:00:23.908Z,18.20
2019-05-19T21:03:29.359Z,16.27
2019-05-19T21:06:34.169Z,13.77
2019-05-19T21:09:38.750Z,11.53
2019-05-19T21:12:43.427Z,17.50
2019-05-19T21:15:48.236Z,16.57
2019-05-19T21:18:52.621Z,14.13
2019-05-19T21:21:57.482Z,12.37
2019-05-19T21:25:01.935Z,15.60
2019-05-19T21:28:06.397Z,13.33
2019-05-19T21:31:10.841Z,14.00
2019-05-19T21:34:15.193Z,11.50
2019-05-19T21:37:22.307Z,16.20
2019-05-19T21:40:26.685Z,13.10
2019-05-19T21:43:31.128Z,12.33
2019-05-19T21:46:36.245Z,10.97
2019-05-19T21:49:50.454Z,11.43
2019-05-19T21:52:54.766Z,11.77
2019-05-19T21:55:59.183Z,11.40
2019-05-19T21:59:03.543Z,11.50
2019-05-19T22:02:08.160Z,14.50
2019-05-19T22:05:13.112Z,13.13
2019-05-19T22:08:18.863Z,12.17
2019-05-19T22:11:23.484Z,11.87
2019-05-19T22:14:28.326Z,12.37
2019-05-19T22:17:32.969Z,13.77
2019-05-19T22:20:37.426Z,12.80
2019-05-19T22:23:42.517Z,14.40
2019-05-19T22:26:47.160Z,12.57
2019-05-19T22:29:51.611Z,14.07
2019-05-19T22:32:56.147Z,12.00
2019-05-19T22:36:00.828Z,11.93
2019-05-19T22:39:07.692Z,10.00
2019-05-19T22:42:12.071Z,11.40
2019-05-19T22:45:16.807Z,10.43
2019-05-19T22:48:22.659Z,14.03
2019-05-19T22:51:27.150Z,12.03
2019-05-19T22:54:31.460Z,14.50
2019-05-19T22:57:37.098Z,14.70
2019-05-19T23:00:41.429Z,18.77
2019-05-19T23:03:45.797Z,13.90
2019-05-19T23:06:50.287Z,14.60
2019-05-19T23:09:54.643Z,12.87
2019-05-19T23:12:58.952Z,13.60
2019-05-19T23:16:03.280Z,14.00
2019-05-19T23:19:09.270Z,13.97
2019-05-19T23:22:13.695Z,12.73
2019-05-19T23:25:18.949Z,14.97
2019-05-19T23:28:23.919Z,13.43
2019-05-19T23:31:28.255Z,11.07
2019-05-19T23:34:32.889Z,12.97
2019-05-19T23:37:37.389Z,13.03
2019-05-19T23:40:42.553Z,12.47
2019-05-19T23:43:47.622Z,12.77
2019-05-19T23:46:51.970Z,12.63
2019-05-19T23:49:57.037Z,12.20
2019-05-19T23:53:01.528Z,10.63
2019-05-19T23:56:06.788Z,16.93
2019-05-19T23:59:11.184Z,12.87
